sensor_id;sensor_type;location;lat;lon;timestamp;pressure;altitude;pressure_sealevel;temperature;humidity
64933;BME280;51446;53.850;10.662;2023-02-19T00:01:37;101405.28;;;3.09;100.00
64933;BME280;51446;53.850;10.662;2023-02-19T00:04:06;101404.88;;;3.01;100.00
64933;BME280;51446;53.850;10.662;2023-02-19T00:06:33;101400.66;;;3.03;100.00
64933;BME280;51446;53.850;10.662;2023-02-19T00:08:59;101398.13;;;3.05;100.00
64933;BME280;51446;53.850;10.662;2023-02-19T00:11:27;101400.00;;;3.07;100.00
64933;BME280;51446;53.850;10.662;2023-02-19T00:13:54;101409.13;;;3.01;100.00
64933;BME280;51446;53.850;10.662;2023-02-19T00:16:23;101404.94;;;3.03;100.00
64933;BME280;51446;53.850;10.662;2023-02-19T00:18:50;101407.44;;;3.01;100.00
64933;BME280;51446;53.850;10.662;2023-02-19T00:21:16;101416.03;;;3.00;100.00
64933;BME280;51446;53.850;10.662;2023-02-19T00:23:42;101409.75;;;2.97;100.00
64933;BME280;51446;53.850;10.662;2023-02-19T00:26:09;101402.97;;;2.99;100.00
64933;BME280;51446;53.850;10.662;2023-02-19T00:28:35;101409.03;;;2.99;100.00
64933;BME280;51446;53.850;10.662;2023-02-19T00:31:06;101408.34;;;3.02;100.00
64933;BME280;51446;53.850;10.662;2023-02-19T00:33:32;101411.28;;;2.93;100.00
64933;BME280;51446;53.850;10.662;2023-02-19T00:36:00;101413.19;;;2.95;100.00
64933;BME280;51446;53.850;10.662;2023-02-19T00:38:25;101420.13;;;2.97;100.00
64933;BME280;51446;53.850;10.662;2023-02-19T00:40:50;101411.81;;;3.02;100.00
64933;BME280;51446;53.850;10.662;2023-02-19T00:43:16;101406.53;;;3.01;100.00
64933;BME280;51446;53.850;10.662;2023-02-19T00:45:41;101401.19;;;2.98;100.00
64933;BME280;51446;53.850;10.662;2023-02-19T00:48:06;101402.91;;;2.97;100.00
64933;BME280;51446;53.850;10.662;2023-02-19T00:50:31;101403.88;;;2.99;100.00
64933;BME280;51446;53.850;10.662;2023-02-19T00:52:57;101401.91;;;2.95;100.00
64933;BME280;51446;53.850;10.662;2023-02-19T00:55:22;101414.69;;;2.92;100.00
64933;BME280;51446;53.850;10.662;2023-02-19T00:57:47;101413.34;;;2.99;100.00
64933;BME280;51446;53.850;10.662;2023-02-19T01:00:12;101410.75;;;2.99;100.00
64933;BME280;51446;53.850;10.662;2023-02-19T01:02:38;101415.47;;;3.06;100.00
64933;BME280;51446;53.850;10.662;2023-02-19T01:05:03;101421.28;;;3.02;100.00
64933;BME280;51446;53.850;10.662;2023-02-19T01:07:29;101417.81;;;3.01;100.00
64933;BME280;51446;53.850;10.662;2023-02-19T01:09:54;101431.41;;;2.97;100.00
64933;BME280;51446;53.850;10.662;2023-02-19T01:12:20;101437.53;;;2.99;100.00
64933;BME280;51446;53.850;10.662;2023-02-19T01:14:45;101429.84;;;3.01;100.00
64933;BME280;51446;53.850;10.662;2023-02-19T01:17:11;101433.28;;;3.00;100.00
64933;BME280;51446;53.850;10.662;2023-02-19T01:19:36;101430.13;;;3.05;100.00
64933;BME280;51446;53.850;10.662;2023-02-19T01:22:01;101429.06;;;3.02;100.00
64933;BME280;51446;53.850;10.662;2023-02-19T01:24:27;101438.25;;;3.11;100.00
64933;BME280;51446;53.850;10.662;2023-02-19T01:26:52;101438.00;;;3.07;100.00
64933;BME280;51446;53.850;10.662;2023-02-19T01:29:17;101440.38;;;3.04;100.00
64933;BME280;51446;53.850;10.662;2023-02-19T01:31:42;101442.34;;;3.08;100.00
64933;BME280;51446;53.850;10.662;2023-02-19T01:34:09;101441.47;;;3.07;100.00
64933;BME280;51446;53.850;10.662;2023-02-19T01:36:35;101445.31;;;2.99;100.00
64933;BME280;51446;53.850;10.662;2023-02-19T01:39:03;101442.81;;;3.01;100.00
64933;BME280;51446;53.850;10.662;2023-02-19T01:41:29;101433.78;;;3.09;100.00
64933;BME280;51446;53.850;10.662;2023-02-19T01:46:42;101430.13;;;3.05;100.00
64933;BME280;51446;53.850;10.662;2023-02-19T01:49:13;101426.56;;;3.03;100.00
64933;BME280;51446;53.850;10.662;2023-02-19T01:51:56;101427.00;;;2.96;100.00
64933;BME280;51446;53.850;10.662;2023-02-19T01:54:25;101423.25;;;2.91;100.00
64933;BME280;51446;53.850;10.662;2023-02-19T01:56:53;101424.69;;;2.86;100.00
64933;BME280;51446;53.850;10.662;2023-02-19T01:59:18;101416.94;;;2.86;100.00
64933;BME280;51446;53.850;10.662;2023-02-19T02:01:44;101421.22;;;2.85;100.00
64933;BME280;51446;53.850;10.662;2023-02-19T02:04:11;101403.59;;;2.94;100.00
64933;BME280;51446;53.850;10.662;2023-02-19T02:06:42;101395.31;;;2.85;100.00
64933;BME280;51446;53.850;10.662;2023-02-19T02:09:11;101394.00;;;2.77;100.00
64933;BME280;51446;53.850;10.662;2023-02-19T02:11:55;101399.50;;;2.83;100.00
64933;BME280;51446;53.850;10.662;2023-02-19T02:14:24;101402.09;;;2.83;100.00
64933;BME280;51446;53.850;10.662;2023-02-19T02:17:05;101398.81;;;2.86;100.00
64933;BME280;51446;53.850;10.662;2023-02-19T02:22:54;101396.56;;;2.77;100.00
64933;BME280;51446;53.850;10.662;2023-02-19T02:31:01;101401.13;;;2.66;100.00
64933;BME280;51446;53.850;10.662;2023-02-19T02:33:38;101391.59;;;2.65;100.00
64933;BME280;51446;53.850;10.662;2023-02-19T02:36:15;101393.28;;;2.65;100.00
64933;BME280;51446;53.850;10.662;2023-02-19T02:38:44;101395.69;;;2.62;100.00
64933;BME280;51446;53.850;10.662;2023-02-19T02:41:10;101396.69;;;2.64;100.00
64933;BME280;51446;53.850;10.662;2023-02-19T02:43:36;101400.94;;;2.63;100.00
64933;BME280;51446;53.850;10.662;2023-02-19T02:46:02;101397.56;;;2.64;100.00
64933;BME280;51446;53.850;10.662;2023-02-19T02:48:40;101393.28;;;2.65;100.00
64933;BME280;51446;53.850;10.662;2023-02-19T02:53:58;101393.09;;;2.62;100.00
64933;BME280;51446;53.850;10.662;2023-02-19T02:56:45;101391.66;;;2.52;100.00
64933;BME280;51446;53.850;10.662;2023-02-19T02:59:15;101394.50;;;2.56;100.00
64933;BME280;51446;53.850;10.662;2023-02-19T03:01:48;101384.50;;;2.48;100.00
64933;BME280;51446;53.850;10.662;2023-02-19T03:04:48;101386.13;;;2.46;100.00
64933;BME280;51446;53.850;10.662;2023-02-19T03:07:48;101394.34;;;2.38;100.00
64933;BME280;51446;53.850;10.662;2023-02-19T03:10:19;101394.25;;;2.37;100.00
64933;BME280;51446;53.850;10.662;2023-02-19T03:12:48;101393.16;;;2.33;100.00
64933;BME280;51446;53.850;10.662;2023-02-19T03:15:40;101393.69;;;2.28;100.00
64933;BME280;51446;53.850;10.662;2023-02-19T03:18:28;101391.38;;;2.17;100.00
64933;BME280;51446;53.850;10.662;2023-02-19T03:21:16;101402.63;;;2.18;100.00
64933;BME280;51446;53.850;10.662;2023-02-19T03:23:44;101407.50;;;2.13;100.00
64933;BME280;51446;53.850;10.662;2023-02-19T03:26:29;101407.84;;;2.04;100.00
64933;BME280;51446;53.850;10.662;2023-02-19T03:28:57;101407.75;;;2.03;100.00
64933;BME280;51446;53.850;10.662;2023-02-19T03:31:41;101401.19;;;2.08;100.00
64933;BME280;51446;53.850;10.662;2023-02-19T03:34:10;101407.38;;;1.97;100.00
64933;BME280;51446;53.850;10.662;2023-02-19T03:36:43;101402.66;;;1.89;100.00
64933;BME280;51446;53.850;10.662;2023-02-19T03:39:11;101407.22;;;1.94;100.00
64933;BME280;51446;53.850;10.662;2023-02-19T03:41:50;101414.59;;;1.87;100.00
64933;BME280;51446;53.850;10.662;2023-02-19T03:47:24;101411.72;;;1.83;100.00
64933;BME280;51446;53.850;10.662;2023-02-19T03:52:33;101416.16;;;1.70;100.00
64933;BME280;51446;53.850;10.662;2023-02-19T03:55:08;101420.31;;;1.68;100.00
64933;BME280;51446;53.850;10.662;2023-02-19T03:57:43;101427.97;;;1.67;100.00
64933;BME280;51446;53.850;10.662;2023-02-19T04:00:17;101427.59;;;1.61;100.00
64933;BME280;51446;53.850;10.662;2023-02-19T04:05:36;101431.69;;;1.57;100.00
64933;BME280;51446;53.850;10.662;2023-02-19T04:08:08;101434.38;;;1.59;100.00
64933;BME280;51446;53.850;10.662;2023-02-19T04:10:36;101442.63;;;1.53;100.00
64933;BME280;51446;53.850;10.662;2023-02-19T04:13:05;101439.72;;;1.48;100.00
64933;BME280;51446;53.850;10.662;2023-02-19T04:15:35;101446.22;;;1.42;100.00
64933;BME280;51446;53.850;10.662;2023-02-19T04:18:13;101453.88;;;1.40;100.00
64933;BME280;51446;53.850;10.662;2023-02-19T04:20:42;101454.56;;;1.37;100.00
64933;BME280;51446;53.850;10.662;2023-02-19T04:23:08;101451.38;;;1.28;100.00
64933;BME280;51446;53.850;10.662;2023-02-19T04:25:35;101455.97;;;1.32;100.00
64933;BME280;51446;53.850;10.662;2023-02-19T04:28:02;101464.91;;;1.37;100.00
64933;BME280;51446;53.850;10.662;2023-02-19T04:30:28;101467.50;;;1.37;100.00
64933;BME280;51446;53.850;10.662;2023-02-19T04:32:53;101479.94;;;1.30;100.00
64933;BME280;51446;53.850;10.662;2023-02-19T04:35:19;101486.97;;;1.32;100.00
64933;BME280;51446;53.850;10.662;2023-02-19T04:37:44;101482.53;;;1.30;100.00
64933;BME280;51446;53.850;10.662;2023-02-19T04:40:10;101489.25;;;1.28;100.00
64933;BME280;51446;53.850;10.662;2023-02-19T04:42:35;101486.28;;;1.21;100.00
64933;BME280;51446;53.850;10.662;2023-02-19T04:45:00;101496.91;;;1.26;100.00
64933;BME280;51446;53.850;10.662;2023-02-19T04:47:25;101487.66;;;1.16;100.00
64933;BME280;51446;53.850;10.662;2023-02-19T04:49:51;101494.53;;;1.16;100.00
64933;BME280;51446;53.850;10.662;2023-02-19T04:52:16;101499.31;;;1.10;100.00
64933;BME280;51446;53.850;10.662;2023-02-19T04:54:41;101495.41;;;1.03;100.00
64933;BME280;51446;53.850;10.662;2023-02-19T04:57:06;101505.16;;;1.07;100.00
64933;BME280;51446;53.850;10.662;2023-02-19T04:59:32;101513.78;;;1.08;100.00
64933;BME280;51446;53.850;10.662;2023-02-19T05:01:57;101516.47;;;1.09;100.00
64933;BME280;51446;53.850;10.662;2023-02-19T05:04:22;101512.13;;;1.08;100.00
64933;BME280;51446;53.850;10.662;2023-02-19T05:06:48;101514.47;;;1.05;100.00
64933;BME280;51446;53.850;10.662;2023-02-19T05:09:14;101525.03;;;1.08;100.00
64933;BME280;51446;53.850;10.662;2023-02-19T05:11:40;101513.78;;;1.08;100.00
64933;BME280;51446;53.850;10.662;2023-02-19T05:14:05;101512.91;;;1.07;100.00
64933;BME280;51446;53.850;10.662;2023-02-19T05:16:30;101516.38;;;1.08;100.00
64933;BME280;51446;53.850;10.662;2023-02-19T05:18:57;101520.66;;;1.07;100.00
64933;BME280;51446;53.850;10.662;2023-02-19T05:21:22;101522.94;;;1.16;100.00
64933;BME280;51446;53.850;10.662;2023-02-19T05:23:47;101525.03;;;1.21;100.00
64933;BME280;51446;53.850;10.662;2023-02-19T05:26:15;101521.53;;;1.21;100.00
64933;BME280;51446;53.850;10.662;2023-02-19T05:28:42;101509.63;;;1.23;100.00
64933;BME280;51446;53.850;10.662;2023-02-19T05:31:08;101523.44;;;1.24;100.00
64933;BME280;51446;53.850;10.662;2023-02-19T05:33:33;101524.75;;;1.17;100.00
64933;BME280;51446;53.850;10.662;2023-02-19T05:36:04;101529.69;;;1.14;100.00
64933;BME280;51446;53.850;10.662;2023-02-19T05:38:30;101543.03;;;1.20;100.00
64933;BME280;51446;53.850;10.662;2023-02-19T05:40:55;101546.41;;;1.19;100.00
64933;BME280;51446;53.850;10.662;2023-02-19T05:43:20;101555.50;;;1.14;100.00
64933;BME280;51446;53.850;10.662;2023-02-19T05:45:45;101558.44;;;1.18;100.00
64933;BME280;51446;53.850;10.662;2023-02-19T05:48:11;101559.50;;;1.22;100.00
64933;BME280;51446;53.850;10.662;2023-02-19T05:50:37;101551.38;;;1.16;100.00
64933;BME280;51446;53.850;10.662;2023-02-19T05:53:03;101557.00;;;1.10;100.00
64933;BME280;51446;53.850;10.662;2023-02-19T05:55:32;101557.28;;;1.01;100.00
64933;BME280;51446;53.850;10.662;2023-02-19T05:57:57;101568.72;;;1.05;100.00
64933;BME280;51446;53.850;10.662;2023-02-19T06:00:23;101569.72;;;1.07;100.00
64933;BME280;51446;53.850;10.662;2023-02-19T06:02:51;101572.63;;;1.12;100.00
64933;BME280;51446;53.850;10.662;2023-02-19T06:05:16;101575.88;;;1.09;100.00
64933;BME280;51446;53.850;10.662;2023-02-19T06:07:42;101583.53;;;1.08;100.00
64933;BME280;51446;53.850;10.662;2023-02-19T06:10:09;101586.22;;;1.09;100.00
64933;BME280;51446;53.850;10.662;2023-02-19T06:12:35;101590.50;;;1.09;100.00
64933;BME280;51446;53.850;10.662;2023-02-19T06:15:00;101600.53;;;1.04;100.00
64933;BME280;51446;53.850;10.662;2023-02-19T06:17:26;101594.53;;;1.05;100.00
64933;BME280;51446;53.850;10.662;2023-02-19T06:19:51;101601.59;;;1.08;100.00
64933;BME280;51446;53.850;10.662;2023-02-19T06:22:16;101601.41;;;1.04;100.00
64933;BME280;51446;53.850;10.662;2023-02-19T06:24:41;101615.09;;;1.03;100.00
64933;BME280;51446;53.850;10.662;2023-02-19T06:27:08;101611.22;;;0.97;100.00
64933;BME280;51446;53.850;10.662;2023-02-19T06:29:33;101625.34;;;1.02;100.00
64933;BME280;51446;53.850;10.662;2023-02-19T06:31:59;101620.44;;;0.93;100.00
64933;BME280;51446;53.850;10.662;2023-02-19T06:34:25;101618.06;;;0.96;100.00
64933;BME280;51446;53.850;10.662;2023-02-19T06:36:51;101635.25;;;0.96;100.00
64933;BME280;51446;53.850;10.662;2023-02-19T06:39:16;101622.25;;;0.94;100.00
64933;BME280;51446;53.850;10.662;2023-02-19T06:41:41;101631.31;;;1.01;100.00
64933;BME280;51446;53.850;10.662;2023-02-19T06:44:06;101632.56;;;0.94;100.00
64933;BME280;51446;53.850;10.662;2023-02-19T06:46:32;101639.75;;;0.98;100.00
64933;BME280;51446;53.850;10.662;2023-02-19T06:48:58;101647.91;;;1.04;100.00
64933;BME280;51446;53.850;10.662;2023-02-19T06:51:23;101654.75;;;1.04;100.00
64933;BME280;51446;53.850;10.662;2023-02-19T06:53:51;101659.22;;;1.07;100.00
64933;BME280;51446;53.850;10.662;2023-02-19T06:58:53;101665.63;;;1.25;100.00
64933;BME280;51446;53.850;10.662;2023-02-19T07:01:19;101676.72;;;1.36;100.00
64933;BME280;51446;53.850;10.662;2023-02-19T07:03:44;101696.34;;;1.46;100.00
64933;BME280;51446;53.850;10.662;2023-02-19T07:06:09;101693.16;;;1.50;100.00
64933;BME280;51446;53.850;10.662;2023-02-19T07:08:34;101698.66;;;1.54;100.00
64933;BME280;51446;53.850;10.662;2023-02-19T07:11:00;101697.31;;;1.48;100.00
64933;BME280;51446;53.850;10.662;2023-02-19T07:13:25;101710.00;;;1.70;100.00
64933;BME280;51446;53.850;10.662;2023-02-19T07:15:51;101704.28;;;2.01;100.00
64933;BME280;51446;53.850;10.662;2023-02-19T07:18:21;101708.22;;;1.96;100.00
64933;BME280;51446;53.850;10.662;2023-02-19T07:20:47;101707.16;;;2.05;100.00
64933;BME280;51446;53.850;10.662;2023-02-19T07:23:12;101712.00;;;2.28;100.00
64933;BME280;51446;53.850;10.662;2023-02-19T07:25:37;101715.63;;;2.30;100.00
64933;BME280;51446;53.850;10.662;2023-02-19T07:28:03;101717.50;;;2.32;100.00
64933;BME280;51446;53.850;10.662;2023-02-19T07:30:28;101723.28;;;2.41;100.00
64933;BME280;51446;53.850;10.662;2023-02-19T07:32:53;101713.78;;;2.69;100.00
64933;BME280;51446;53.850;10.662;2023-02-19T07:35:19;101729.84;;;2.50;100.00
64933;BME280;51446;53.850;10.662;2023-02-19T07:37:44;101723.22;;;2.82;100.00
64933;BME280;51446;53.850;10.662;2023-02-19T07:40:09;101732.75;;;3.24;100.00
64933;BME280;51446;53.850;10.662;2023-02-19T07:42:34;101731.09;;;3.70;100.00
64933;BME280;51446;53.850;10.662;2023-02-19T07:45:00;101731.41;;;3.31;100.00
64933;BME280;51446;53.850;10.662;2023-02-19T07:47:25;101734.22;;;3.49;100.00
64933;BME280;51446;53.850;10.662;2023-02-19T07:49:50;101735.78;;;3.32;100.00
64933;BME280;51446;53.850;10.662;2023-02-19T07:52:15;101747.09;;;3.19;100.00
64933;BME280;51446;53.850;10.662;2023-02-19T07:54:41;101741.03;;;2.90;100.00
64933;BME280;51446;53.850;10.662;2023-02-19T07:57:06;101748.72;;;2.75;100.00
64933;BME280;51446;53.850;10.662;2023-02-19T07:59:31;101755.50;;;2.73;100.00
64933;BME280;51446;53.850;10.662;2023-02-19T08:01:56;101766.25;;;2.80;100.00
64933;BME280;51446;53.850;10.662;2023-02-19T08:04:41;101771.59;;;2.96;100.00
64933;BME280;51446;53.850;10.662;2023-02-19T08:07:06;101776.84;;;3.39;100.00
64933;BME280;51446;53.850;10.662;2023-02-19T08:09:32;101774.25;;;3.68;100.00
64933;BME280;51446;53.850;10.662;2023-02-19T08:11:57;101768.63;;;4.20;100.00
64933;BME280;51446;53.850;10.662;2023-02-19T08:14:41;101772.72;;;4.01;100.00
64933;BME280;51446;53.850;10.662;2023-02-19T08:17:06;101779.16;;;3.93;100.00
64933;BME280;51446;53.850;10.662;2023-02-19T08:19:32;101781.31;;;5.57;100.00
64933;BME280;51446;53.850;10.662;2023-02-19T08:21:57;101776.53;;;6.34;100.00
64933;BME280;51446;53.850;10.662;2023-02-19T08:24:22;101776.91;;;7.74;100.00
64933;BME280;51446;53.850;10.662;2023-02-19T08:26:47;101781.03;;;6.02;100.00
64933;BME280;51446;53.850;10.662;2023-02-19T08:29:13;101783.44;;;7.64;100.00
64933;BME280;51446;53.850;10.662;2023-02-19T08:31:38;101785.84;;;6.65;100.00
64933;BME280;51446;53.850;10.662;2023-02-19T08:34:03;101780.00;;;7.45;100.00
64933;BME280;51446;53.850;10.662;2023-02-19T08:36:28;101787.28;;;7.14;100.00
64933;BME280;51446;53.850;10.662;2023-02-19T08:38:54;101784.19;;;7.61;100.00
64933;BME280;51446;53.850;10.662;2023-02-19T08:41:19;101780.44;;;8.38;100.00
64933;BME280;51446;53.850;10.662;2023-02-19T08:43:44;101787.59;;;8.42;100.00
64933;BME280;51446;53.850;10.662;2023-02-19T08:46:10;101796.06;;;7.35;100.00
64933;BME280;51446;53.850;10.662;2023-02-19T08:48:36;101796.75;;;9.42;100.00
64933;BME280;51446;53.850;10.662;2023-02-19T08:51:05;101789.97;;;9.25;100.00
64933;BME280;51446;53.850;10.662;2023-02-19T08:53:33;101806.25;;;7.49;100.00
64933;BME280;51446;53.850;10.662;2023-02-19T08:56:07;101809.25;;;6.63;100.00
64933;BME280;51446;53.850;10.662;2023-02-19T08:58:33;101818.28;;;7.45;100.00
64933;BME280;51446;53.850;10.662;2023-02-19T09:00:58;101812.06;;;8.23;100.00
64933;BME280;51446;53.850;10.662;2023-02-19T09:03:23;101825.66;;;9.00;100.00
64933;BME280;51446;53.850;10.662;2023-02-19T09:05:49;101827.94;;;7.67;100.00
64933;BME280;51446;53.850;10.662;2023-02-19T09:08:14;101825.66;;;9.00;100.00
64933;BME280;51446;53.850;10.662;2023-02-19T09:10:40;101832.38;;;9.16;100.00
64933;BME280;51446;53.850;10.662;2023-02-19T09:13:05;101826.56;;;8.57;100.00
64933;BME280;51446;53.850;10.662;2023-02-19T09:15:30;101841.19;;;10.65;96.14
64933;BME280;51446;53.850;10.662;2023-02-19T09:17:57;101839.38;;;9.62;99.80
64933;BME280;51446;53.850;10.662;2023-02-19T09:20:23;101847.75;;;8.63;100.00
64933;BME280;51446;53.850;10.662;2023-02-19T09:22:48;101847.94;;;8.46;100.00
64933;BME280;51446;53.850;10.662;2023-02-19T09:25:13;101869.88;;;7.90;100.00
64933;BME280;51446;53.850;10.662;2023-02-19T09:27:39;101881.72;;;7.44;100.00
64933;BME280;51446;53.850;10.662;2023-02-19T09:30:04;101874.38;;;8.54;100.00
64933;BME280;51446;53.850;10.662;2023-02-19T09:32:30;101871.84;;;8.56;100.00
64933;BME280;51446;53.850;10.662;2023-02-19T09:34:56;101881.72;;;8.84;100.00
64933;BME280;51446;53.850;10.662;2023-02-19T09:37:27;101882.78;;;9.33;100.00
64933;BME280;51446;53.850;10.662;2023-02-19T09:39:53;101888.22;;;8.94;100.00
64933;BME280;51446;53.850;10.662;2023-02-19T09:42:23;101880.59;;;9.00;100.00
64933;BME280;51446;53.850;10.662;2023-02-19T09:44:54;101879.75;;;9.22;100.00
64933;BME280;51446;53.850;10.662;2023-02-19T09:47:22;101878.03;;;8.79;100.00
64933;BME280;51446;53.850;10.662;2023-02-19T09:49:51;101871.78;;;8.75;100.00
64933;BME280;51446;53.850;10.662;2023-02-19T09:52:23;101896.66;;;7.86;100.00
64933;BME280;51446;53.850;10.662;2023-02-19T09:54:50;101896.44;;;8.01;100.00
64933;BME280;51446;53.850;10.662;2023-02-19T09:57:21;101898.16;;;8.81;100.00
64933;BME280;51446;53.850;10.662;2023-02-19T09:59:50;101899.13;;;9.72;100.00
64933;BME280;51446;53.850;10.662;2023-02-19T10:02:18;101901.63;;;9.69;95.91
64933;BME280;51446;53.850;10.662;2023-02-19T10:04:46;101898.88;;;8.56;100.00
64933;BME280;51446;53.850;10.662;2023-02-19T10:07:17;101901.75;;;9.27;98.55
64933;BME280;51446;53.850;10.662;2023-02-19T10:09:55;101891.34;;;10.74;88.27
64933;BME280;51446;53.850;10.662;2023-02-19T10:12:29;101902.06;;;11.09;87.60
64933;BME280;51446;53.850;10.662;2023-02-19T10:17:43;101916.81;;;11.04;84.64
64933;BME280;51446;53.850;10.662;2023-02-19T10:20:14;101930.44;;;9.94;87.53
64933;BME280;51446;53.850;10.662;2023-02-19T10:22:40;101945.59;;;8.09;100.00
64933;BME280;51446;53.850;10.662;2023-02-19T10:25:05;101942.56;;;9.22;97.22
64933;BME280;51446;53.850;10.662;2023-02-19T10:27:31;101950.47;;;8.81;100.00
64933;BME280;51446;53.850;10.662;2023-02-19T10:29:57;101958.53;;;8.06;100.00
64933;BME280;51446;53.850;10.662;2023-02-19T10:32:25;101964.97;;;7.95;100.00
64933;BME280;51446;53.850;10.662;2023-02-19T10:35:13;101969.91;;;8.46;100.00
64933;BME280;51446;53.850;10.662;2023-02-19T10:37:48;101977.28;;;8.37;100.00
64933;BME280;51446;53.850;10.662;2023-02-19T10:40:19;101975.25;;;9.11;96.95
64933;BME280;51446;53.850;10.662;2023-02-19T10:42:47;101991.81;;;8.90;97.79
64933;BME280;51446;53.850;10.662;2023-02-19T10:45:18;101987.72;;;10.31;84.60
64933;BME280;51446;53.850;10.662;2023-02-19T10:47:45;101989.31;;;11.55;71.26
64933;BME280;51446;53.850;10.662;2023-02-19T10:50:21;101988.88;;;10.38;73.07
64933;BME280;51446;53.850;10.662;2023-02-19T10:52:53;101995.28;;;11.51;69.33
64933;BME280;51446;53.850;10.662;2023-02-19T10:57:52;101992.47;;;11.17;67.25
64933;BME280;51446;53.850;10.662;2023-02-19T11:00:23;101999.16;;;10.82;66.01
64933;BME280;51446;53.850;10.662;2023-02-19T11:03:18;102004.84;;;9.75;75.25
64933;BME280;51446;53.850;10.662;2023-02-19T11:05:58;102001.72;;;10.80;69.47
64933;BME280;51446;53.850;10.662;2023-02-19T11:08:24;101998.66;;;11.46;61.53
64933;BME280;51446;53.850;10.662;2023-02-19T11:10:50;102003.19;;;12.39;61.00
64933;BME280;51446;53.850;10.662;2023-02-19T11:13:22;102021.47;;;10.22;64.31
64933;BME280;51446;53.850;10.662;2023-02-19T11:15:52;102020.47;;;10.41;67.32
64933;BME280;51446;53.850;10.662;2023-02-19T11:18:23;102015.41;;;10.71;63.45
64933;BME280;51446;53.850;10.662;2023-02-19T11:20:52;102014.50;;;9.98;66.83
64933;BME280;51446;53.850;10.662;2023-02-19T11:23:24;102009.06;;;11.16;59.67
64933;BME280;51446;53.850;10.662;2023-02-19T11:25:50;102011.16;;;10.49;67.40
64933;BME280;51446;53.850;10.662;2023-02-19T11:30:49;102019.47;;;9.47;71.95
64933;BME280;51446;53.850;10.662;2023-02-19T11:35:41;102028.59;;;9.79;66.45
64933;BME280;51446;53.850;10.662;2023-02-19T11:38:09;102018.50;;;10.59;64.66
64933;BME280;51446;53.850;10.662;2023-02-19T11:40:50;102022.28;;;9.97;68.50
64933;BME280;51446;53.850;10.662;2023-02-19T11:46:10;102027.88;;;10.06;67.56
64933;BME280;51446;53.850;10.662;2023-02-19T11:49:14;102043.56;;;9.38;74.80
64933;BME280;51446;53.850;10.662;2023-02-19T11:52:10;102045.22;;;10.98;66.43
64933;BME280;51446;53.850;10.662;2023-02-19T11:54:58;102047.00;;;11.52;59.81
64933;BME280;51446;53.850;10.662;2023-02-19T11:57:47;102049.38;;;11.17;55.27
64933;BME280;51446;53.850;10.662;2023-02-19T12:00:38;102046.28;;;9.62;66.52
64933;BME280;51446;53.850;10.662;2023-02-19T12:03:30;102039.34;;;10.55;62.29
64933;BME280;51446;53.850;10.662;2023-02-19T12:06:07;102035.59;;;10.48;65.40
64933;BME280;51446;53.850;10.662;2023-02-19T12:12:10;102040.00;;;10.04;67.27
64933;BME280;51446;53.850;10.662;2023-02-19T12:18:00;102044.38;;;10.49;67.02
64933;BME280;51446;53.850;10.662;2023-02-19T12:21:01;102045.91;;;10.21;69.11
64933;BME280;51446;53.850;10.662;2023-02-19T12:23:42;102048.53;;;9.76;69.03
64933;BME280;51446;53.850;10.662;2023-02-19T12:26:36;102059.38;;;9.62;64.26
64933;BME280;51446;53.850;10.662;2023-02-19T12:29:10;102066.75;;;10.63;64.21
64933;BME280;51446;53.850;10.662;2023-02-19T12:31:43;102069.28;;;9.06;68.77
64933;BME280;51446;53.850;10.662;2023-02-19T12:34:32;102066.94;;;9.33;72.26
64933;BME280;51446;53.850;10.662;2023-02-19T12:40:17;102061.19;;;7.68;84.10
64933;BME280;51446;53.850;10.662;2023-02-19T12:43:10;102067.94;;;7.62;84.29
64933;BME280;51446;53.850;10.662;2023-02-19T12:46:08;102067.63;;;7.74;87.89
64933;BME280;51446;53.850;10.662;2023-02-19T12:48:41;102059.50;;;7.32;83.09
64933;BME280;51446;53.850;10.662;2023-02-19T12:51:18;102068.38;;;7.54;85.45
64933;BME280;51446;53.850;10.662;2023-02-19T12:53:53;102077.69;;;7.31;88.50
64933;BME280;51446;53.850;10.662;2023-02-19T12:56:28;102066.69;;;7.20;88.92
64933;BME280;51446;53.850;10.662;2023-02-19T12:59:03;102064.94;;;7.37;89.26
64933;BME280;51446;53.850;10.662;2023-02-19T13:02:08;102063.34;;;7.40;90.37
64933;BME280;51446;53.850;10.662;2023-02-19T13:04:42;102066.38;;;7.14;91.81
64933;BME280;51446;53.850;10.662;2023-02-19T13:07:16;102058.03;;;6.86;89.08
64933;BME280;51446;53.850;10.662;2023-02-19T13:09:48;102055.31;;;7.01;89.36
64933;BME280;51446;53.850;10.662;2023-02-19T13:12:25;102060.78;;;7.06;91.05
64933;BME280;51446;53.850;10.662;2023-02-19T13:14:59;102064.03;;;7.54;87.76
64933;BME280;51446;53.850;10.662;2023-02-19T13:17:33;102062.41;;;7.56;86.70
64933;BME280;51446;53.850;10.662;2023-02-19T13:20:12;102051.28;;;7.60;87.61
64933;BME280;51446;53.850;10.662;2023-02-19T13:22:44;102040.88;;;7.08;87.52
64933;BME280;51446;53.850;10.662;2023-02-19T13:26:00;102039.56;;;7.34;86.56
64933;BME280;51446;53.850;10.662;2023-02-19T13:36:54;102046.66;;;6.84;92.34
64933;BME280;51446;53.850;10.662;2023-02-19T13:39:20;102040.09;;;7.27;92.34
64933;BME280;51446;53.850;10.662;2023-02-19T13:41:51;102034.44;;;7.18;94.22
64933;BME280;51446;53.850;10.662;2023-02-19T13:44:23;102025.53;;;6.80;96.94
64933;BME280;51446;53.850;10.662;2023-02-19T13:46:50;102037.50;;;6.92;99.64
64933;BME280;51446;53.850;10.662;2023-02-19T13:51:57;102016.59;;;7.27;95.40
64933;BME280;51446;53.850;10.662;2023-02-19T13:54:32;102023.16;;;7.19;96.23